Terminal Aerodrome Forecast
Issued by NWS Glasgow, MT

Home | Current Version | Previous Version | Text Only | Print | Product List | Glossary On
Versions: 1 2 3 4 5 6 7 8 9 10 11 12 13 14
000
FTUS45 KGGW 301123
TAFGGW
TAF
KGGW 301123Z 3012/0112 12009KT P6SM SCT180
     FM301600 19010KT P6SM BKN100
     FM301900 24012KT P6SM BKN090
     FM010000 27012KT P6SM VCSH BKN090
     FM010200 27008KT P6SM VCSH BKN080
     FM011100 30012KT P6SM BKN080=

USA.gov is the U.S. government's official web portal to all federal, state and local government web resources and services.